createdAt,value
2018-07-07T00:00:46.188Z,550.8
2018-07-07T00:01:48.388Z,550.8
2018-07-07T00:02:50.579Z,550.8
2018-07-07T00:03:53.076Z,550.5
2018-07-07T00:04:55.276Z,550.7
2018-07-07T00:05:57.737Z,550.5
2018-07-07T00:06:59.913Z,550.4
2018-07-07T00:08:02.081Z,550.9
2018-07-07T00:09:04.268Z,550.5
2018-07-07T00:10:06.420Z,551
2018-07-07T00:11:08.866Z,550.9
2018-07-07T00:12:11.311Z,550.5
2018-07-07T00:13:13.484Z,550.3
2018-07-07T00:14:15.651Z,550
2018-07-07T00:15:17.556Z,550.4
2018-07-07T00:16:19.431Z,550.2
2018-07-07T00:17:21.304Z,550
2018-07-07T00:18:23.459Z,549.7
2018-07-07T00:19:25.625Z,549.4
2018-07-07T00:20:27.538Z,549.6
2018-07-07T00:21:29.729Z,549.4
2018-07-07T00:22:31.914Z,550
2018-07-07T00:23:34.084Z,550
2018-07-07T00:24:36.524Z,550
2018-07-07T00:25:38.972Z,550.4
2018-07-07T00:26:40.866Z,550.3
2018-07-07T00:27:43.309Z,550.1
2018-07-07T00:28:45.765Z,550.3
2018-07-07T00:29:48.209Z,550.3
2018-07-07T00:30:50.670Z,550.1
2018-07-07T00:31:52.845Z,550.7
2018-07-07T00:32:55.033Z,550.6
2018-07-07T00:33:57.481Z,550
2018-07-07T00:34:59.382Z,550.4
2018-07-07T00:36:01.529Z,550.4
2018-07-07T00:37:03.972Z,550.1
2018-07-07T00:38:06.462Z,550.2
2018-07-07T00:39:08.906Z,550.5
2018-07-07T00:40:11.098Z,550.4
2018-07-07T00:41:13.255Z,550.2
2018-07-07T00:42:15.439Z,550.1
2018-07-07T00:43:17.619Z,550.4
2018-07-07T00:44:19.804Z,550.5
2018-07-07T00:45:22.249Z,550.4
2018-07-07T00:46:24.149Z,550.2
2018-07-07T00:47:26.590Z,550.1
2018-07-07T00:48:29.041Z,550.3
2018-07-07T00:49:30.922Z,549.9
2018-07-07T00:50:33.113Z,550.4
2018-07-07T00:51:35.298Z,550.4
2018-07-07T00:52:37.479Z,550.2
2018-07-07T00:53:39.632Z,550.2
2018-07-07T00:54:41.813Z,550.5
2018-07-07T00:55:43.992Z,550.2
2018-07-07T00:56:46.171Z,550.3
2018-07-07T00:57:48.084Z,550.5
2018-07-07T00:58:50.229Z,550.8
2018-07-07T00:59:52.678Z,550.5
2018-07-07T01:00:54.852Z,550.6
2018-07-07T01:01:56.751Z,550.5
2018-07-07T01:02:58.929Z,550.8
2018-07-07T01:04:01.108Z,550.5
2018-07-07T01:05:03.310Z,550.2
2018-07-07T01:06:05.767Z,550.2
2018-07-07T01:07:08.220Z,549.6
2018-07-07T01:08:10.122Z,549.9
2018-07-07T01:09:12.289Z,550
2018-07-07T01:10:14.202Z,549.8
2018-07-07T01:11:16.376Z,549.7
2018-07-07T01:12:18.278Z,549.9
2018-07-07T01:13:20.465Z,550
2018-07-07T01:14:22.639Z,549.7
2018-07-07T01:15:25.086Z,549.9
2018-07-07T01:16:27.535Z,550
2018-07-07T01:17:29.986Z,550
2018-07-07T01:18:32.432Z,549.7
2018-07-07T01:19:34.878Z,549.8
2018-07-07T01:20:37.329Z,549.7
2018-07-07T01:21:39.224Z,550
2018-07-07T01:22:41.680Z,549.9
2018-07-07T01:23:44.131Z,549.8
2018-07-07T01:24:46.586Z,550.2
2018-07-07T01:25:48.771Z,550.4
2018-07-07T01:26:50.686Z,550.2
2018-07-07T01:27:53.140Z,550.2
2018-07-07T01:28:55.330Z,550.3
2018-07-07T01:29:57.517Z,550.4
2018-07-07T01:30:59.977Z,550.5
2018-07-07T01:32:02.128Z,550.4
2018-07-07T01:33:04.300Z,550.1
2018-07-07T01:34:06.748Z,549.9
2018-07-07T01:35:08.917Z,550.1
2018-07-07T01:36:11.097Z,550.1
2018-07-07T01:37:13.278Z,549.8
2018-07-07T01:38:15.746Z,550.3
2018-07-07T01:39:17.359Z,550.3
2018-07-07T01:40:19.806Z,550.6
2018-07-07T01:41:21.981Z,550.6
2018-07-07T01:42:24.148Z,550.5
2018-07-07T01:43:26.044Z,550.2
2018-07-07T01:44:28.490Z,550.2
2018-07-07T01:45:30.675Z,550.6
2018-07-07T01:46:33.125Z,550.4
2018-07-07T01:47:35.300Z,550.3
2018-07-07T01:48:37.580Z,550.4
2018-07-07T01:49:39.792Z,550.4
2018-07-07T01:50:41.958Z,550.7
2018-07-07T01:51:43.579Z,550.7
2018-07-07T01:52:46.043Z,550.6
2018-07-07T01:53:48.206Z,550.5
2018-07-07T01:54:50.345Z,550.7
2018-07-07T01:55:52.794Z,550.7
2018-07-07T01:56:54.959Z,550.2
2018-07-07T01:57:57.418Z,550.4
2018-07-07T01:58:59.596Z,550.5
2018-07-07T02:00:02.041Z,550.4
2018-07-07T02:01:04.488Z,550.1
2018-07-07T02:02:06.709Z,549.7
2018-07-07T02:03:09.169Z,550.2
2018-07-07T02:04:11.620Z,550.4
2018-07-07T02:05:14.056Z,550.4
2018-07-07T02:06:15.963Z,550.6
2018-07-07T02:07:18.134Z,550.4
2018-07-07T02:08:20.300Z,550.4
2018-07-07T02:09:22.749Z,550.2
2018-07-07T02:10:25.357Z,550.4
2018-07-07T02:11:27.866Z,550.1
2018-07-07T02:12:30.311Z,550.2
2018-07-07T02:13:32.466Z,550.2
2018-07-07T02:14:34.911Z,550.2
2018-07-07T02:15:37.359Z,549.9
2018-07-07T02:16:39.807Z,550
2018-07-07T02:17:42.255Z,550.4
2018-07-07T02:18:43.934Z,550.4
2018-07-07T02:19:46.427Z,550.2
2018-07-07T02:20:48.895Z,550.5
2018-07-07T02:21:50.809Z,550.5
2018-07-07T02:22:53.279Z,550.3
2018-07-07T02:23:55.795Z,550.1
2018-07-07T02:24:58.369Z,550.2
2018-07-07T02:26:00.514Z,550
2018-07-07T02:27:02.959Z,549.8
2018-07-07T02:28:05.407Z,549.9
2018-07-07T02:29:07.861Z,549.8
2018-07-07T02:30:10.046Z,550.2
2018-07-07T02:31:12.490Z,549.9
2018-07-07T02:32:14.680Z,549.9
2018-07-07T02:33:16.280Z,550.1
2018-07-07T02:34:18.724Z,549.9
2018-07-07T02:35:20.900Z,550
2018-07-07T02:36:23.351Z,550.1
2018-07-07T02:37:25.802Z,549.9
2018-07-07T02:38:28.243Z,549.9
2018-07-07T02:39:30.699Z,549.4
2018-07-07T02:40:32.879Z,549.6
2018-07-07T02:41:35.098Z,549.4
2018-07-07T02:42:37.286Z,549.5
2018-07-07T02:43:39.753Z,549.3
2018-07-07T02:44:41.934Z,549.2
2018-07-07T02:45:44.090Z,549.6
2018-07-07T02:46:45.725Z,549.6
2018-07-07T02:47:48.163Z,549.1
2018-07-07T02:48:50.340Z,549.3
2018-07-07T02:49:52.509Z,548.9
2018-07-07T02:50:54.981Z,549.3
2018-07-07T02:51:57.153Z,549.1
2018-07-07T02:52:59.604Z,549.5
2018-07-07T02:54:02.062Z,549.4
2018-07-07T02:55:04.212Z,549.2
2018-07-07T02:56:05.857Z,549.2
2018-07-07T02:57:08.019Z,549.2
2018-07-07T02:58:10.204Z,549.7
2018-07-07T02:59:12.661Z,549.4
2018-07-07T03:00:15.140Z,549.9
2018-07-07T03:01:17.341Z,549.3
2018-07-07T03:02:19.786Z,549.4
2018-07-07T03:03:22.748Z,549.3
2018-07-07T03:04:24.788Z,549.3
2018-07-07T03:05:26.944Z,549.2
2018-07-07T03:06:29.120Z,549
2018-07-07T03:07:31.565Z,549
2018-07-07T03:08:33.511Z,548.7
2018-07-07T03:09:35.686Z,548.9
2018-07-07T03:10:38.129Z,548.9
2018-07-07T03:11:40.578Z,549.2
2018-07-07T03:12:42.763Z,548.8
2018-07-07T03:13:44.931Z,549
2018-07-07T03:14:47.373Z,548.7
2018-07-07T03:15:49.834Z,549
2018-07-07T03:16:52.017Z,548.7
2018-07-07T03:17:53.921Z,548.5
2018-07-07T03:18:56.098Z,548.7
2018-07-07T03:19:58.001Z,548.3
2018-07-07T03:21:00.190Z,548.3
2018-07-07T03:22:02.331Z,548.3
2018-07-07T03:23:04.252Z,547.7
2018-07-07T03:24:06.419Z,548.1
2018-07-07T03:25:08.880Z,547.9
2018-07-07T03:26:11.054Z,547.8
2018-07-07T03:27:12.938Z,547.9
2018-07-07T03:28:15.121Z,547.8
2018-07-07T03:29:17.292Z,547.9
2018-07-07T03:30:19.488Z,548.1
2018-07-07T03:31:21.659Z,548
2018-07-07T03:32:24.113Z,548.5
2018-07-07T03:33:26.576Z,548
2018-07-07T03:34:29.020Z,548.3
2018-07-07T03:35:31.464Z,548.3
2018-07-07T03:36:33.394Z,548.1
2018-07-07T03:37:35.845Z,548
2018-07-07T03:38:38.290Z,548.1
2018-07-07T03:39:40.731Z,547.7
2018-07-07T03:40:43.180Z,547.8
2018-07-07T03:41:45.625Z,547.9
2018-07-07T03:42:47.514Z,548.2
2018-07-07T03:43:49.958Z,547.9
2018-07-07T03:44:52.130Z,547.9
2018-07-07T03:45:54.322Z,547.6
2018-07-07T03:46:56.499Z,547.6
2018-07-07T03:47:58.679Z,547.3
2018-07-07T03:49:00.854Z,547.4
2018-07-07T03:50:03.028Z,547.4
2018-07-07T03:51:05.473Z,546.8
2018-07-07T03:52:07.658Z,547.1
2018-07-07T03:53:09.833Z,546.9
2018-07-07T03:54:12.279Z,546.8
2018-07-07T03:55:14.449Z,546.6
2018-07-07T03:56:16.909Z,546.9
2018-07-07T03:57:19.363Z,546.7
2018-07-07T03:58:21.820Z,546.6
2018-07-07T03:59:24.259Z,546.7
2018-07-07T04:00:26.165Z,546.6
2018-07-07T04:01:28.649Z,547
2018-07-07T04:02:31.104Z,546.7
2018-07-07T04:03:33.261Z,546.9
2018-07-07T04:04:35.718Z,546.6
2018-07-07T04:05:38.173Z,547
2018-07-07T04:06:40.619Z,547
2018-07-07T04:07:42.804Z,547
2018-07-07T04:08:44.706Z,546.6
2018-07-07T04:09:46.900Z,546.9
2018-07-07T04:10:49.048Z,546.7
2018-07-07T04:11:51.203Z,546.7
2018-07-07T04:12:53.383Z,546.8
2018-07-07T04:13:54.990Z,546.8
2018-07-07T04:14:57.434Z,547
2018-07-07T04:15:59.608Z,547
2018-07-07T04:17:02.072Z,546.8
2018-07-07T04:18:04.258Z,547.2
2018-07-07T04:19:06.399Z,547.3
2018-07-07T04:20:09.189Z,547
2018-07-07T04:21:11.627Z,546.9
2018-07-07T04:22:13.810Z,547.3
2018-07-07T04:23:16.318Z,546.7
2018-07-07T04:24:18.880Z,546.8
2018-07-07T04:25:21.401Z,547.2
2018-07-07T04:26:23.614Z,546.9
2018-07-07T04:27:26.088Z,546.7
2018-07-07T04:28:28.594Z,546.6
2018-07-07T04:29:30.795Z,547.1
2018-07-07T04:30:32.856Z,547.1
2018-07-07T04:31:35.305Z,547.5
2018-07-07T04:32:37.185Z,547.4
2018-07-07T04:33:39.638Z,547.6
2018-07-07T04:34:41.822Z,547.4
2018-07-07T04:35:44.038Z,547.4
2018-07-07T04:36:45.956Z,547.1
2018-07-07T04:37:48.409Z,547.3
2018-07-07T04:38:50.592Z,547.1
2018-07-07T04:39:52.500Z,547
2018-07-07T04:40:54.960Z,546.9
2018-07-07T04:41:57.144Z,546.8
2018-07-07T04:42:59.330Z,547
2018-07-07T04:44:01.513Z,546.7
2018-07-07T04:45:03.691Z,546.9
2018-07-07T04:46:06.142Z,547.2
2018-07-07T04:47:08.316Z,546.7
2018-07-07T04:48:10.486Z,546.2
2018-07-07T04:49:12.663Z,546.1
2018-07-07T04:50:15.098Z,546
2018-07-07T04:51:17.278Z,545.9
2018-07-07T04:52:19.616Z,545.8
2018-07-07T04:53:22.058Z,546.2
2018-07-07T04:54:24.231Z,546.1
2018-07-07T04:55:26.413Z,545.7
2018-07-07T04:56:28.861Z,545.7
2018-07-07T04:57:31.304Z,546.1
2018-07-07T04:58:33.759Z,545.8
2018-07-07T04:59:36.208Z,545.8
2018-07-07T05:00:38.662Z,545.7
2018-07-07T05:01:41.216Z,545.8
2018-07-07T05:02:43.471Z,545.8
2018-07-07T05:03:46.010Z,546.1
2018-07-07T05:04:48.265Z,546.2
2018-07-07T05:05:49.970Z,545.8
2018-07-07T05:06:51.880Z,545.7
2018-07-07T05:07:54.076Z,545.6
2018-07-07T05:08:55.988Z,545.5
2018-07-07T05:09:58.468Z,545.4
2018-07-07T05:11:00.654Z,546
2018-07-07T05:12:02.830Z,545.7
2018-07-07T05:13:04.478Z,545.7
2018-07-07T05:14:06.927Z,545.8
2018-07-07T05:15:09.100Z,545.8
2018-07-07T05:16:11.580Z,545.9
2018-07-07T05:17:14.222Z,545.9
2018-07-07T05:18:16.393Z,546.1
2018-07-07T05:19:18.845Z,546
2018-07-07T05:20:21.297Z,545.9
2018-07-07T05:21:23.764Z,545.8
2018-07-07T05:22:25.921Z,545.8
2018-07-07T05:23:28.362Z,545.4
2018-07-07T05:24:30.815Z,545.5
2018-07-07T05:25:33.253Z,545.4
2018-07-07T05:26:35.156Z,545.2
2018-07-07T05:27:37.620Z,545.1
2018-07-07T05:28:40.071Z,545.1
2018-07-07T05:29:42.528Z,545.3
2018-07-07T05:30:44.978Z,545.4
2018-07-07T05:31:47.012Z,545.4
2018-07-07T05:32:49.199Z,545.4
2018-07-07T05:33:51.659Z,545.2
2018-07-07T05:34:53.569Z,544.7
2018-07-07T05:35:55.904Z,545.1
2018-07-07T05:36:57.773Z,544.8
2018-07-07T05:37:59.674Z,544.9
2018-07-07T05:39:02.128Z,544.8
2018-07-07T05:40:04.303Z,544.6
2018-07-07T05:41:06.509Z,544.6
2018-07-07T05:42:08.393Z,544.7
2018-07-07T05:43:10.577Z,544.5
2018-07-07T05:44:13.034Z,544.4
2018-07-07T05:45:15.251Z,544.8
2018-07-07T05:46:17.713Z,544.6
2018-07-07T05:47:20.177Z,544.3
2018-07-07T05:48:22.367Z,544.3
2018-07-07T05:49:24.526Z,544.3
2018-07-07T05:50:26.978Z,544.2
2018-07-07T05:51:29.426Z,544
2018-07-07T05:52:31.370Z,544
2018-07-07T05:53:33.820Z,544.2
2018-07-07T05:54:35.788Z,544.5
2018-07-07T05:55:37.371Z,544.3
2018-07-07T05:56:39.827Z,544.1
2018-07-07T05:57:42.012Z,544
2018-07-07T05:58:44.192Z,544
2018-07-07T05:59:46.641Z,544.4
2018-07-07T06:00:49.098Z,543.8
2018-07-07T06:01:51.278Z,544.1
2018-07-07T06:02:53.748Z,543.7
2018-07-07T06:03:55.660Z,544
2018-07-07T06:04:57.853Z,544
2018-07-07T06:06:00.026Z,544.1
2018-07-07T06:07:01.915Z,544.2
2018-07-07T06:08:04.368Z,543.9
2018-07-07T06:09:06.569Z,544
2018-07-07T06:10:08.446Z,544.3
2018-07-07T06:11:10.888Z,544.2
2018-07-07T06:12:12.528Z,544.3
2018-07-07T06:13:14.990Z,544.3
2018-07-07T06:14:16.683Z,543.9
2018-07-07T06:15:19.332Z,544
2018-07-07T06:16:21.524Z,544.1
2018-07-07T06:17:23.989Z,544
2018-07-07T06:18:26.769Z,544.2
2018-07-07T06:19:29.309Z,543.8
2018-07-07T06:20:30.952Z,543.7
2018-07-07T06:21:33.395Z,543.8
2018-07-07T06:22:35.279Z,543.8
2018-07-07T06:23:37.470Z,543.7
2018-07-07T06:24:39.657Z,543.6
2018-07-07T06:25:41.575Z,543.4
2018-07-07T06:26:43.808Z,543.7
2018-07-07T06:27:46.299Z,543.4
2018-07-07T06:28:48.475Z,543.2
2018-07-07T06:29:50.963Z,543.2
2018-07-07T06:30:52.855Z,543.3
2018-07-07T06:31:55.314Z,542.9
2018-07-07T06:32:57.774Z,543
2018-07-07T06:34:00.239Z,543.1
2018-07-07T06:35:02.698Z,543
2018-07-07T06:36:05.160Z,543
2018-07-07T06:37:07.329Z,543.2
2018-07-07T06:38:09.531Z,543.1
2018-07-07T06:39:11.677Z,543
2018-07-07T06:40:13.556Z,542.8
2018-07-07T06:41:15.710Z,542.8
2018-07-07T06:42:17.590Z,543
2018-07-07T06:43:19.747Z,543.2
2018-07-07T06:44:21.643Z,542.4
2018-07-07T06:45:23.822Z,542.5
2018-07-07T06:46:26.270Z,542.1
2018-07-07T06:47:28.718Z,542.1
2018-07-07T06:48:31.170Z,542
2018-07-07T06:49:33.624Z,542
2018-07-07T06:50:35.524Z,542.2
2018-07-07T06:51:37.687Z,542
2018-07-07T06:52:39.866Z,542.5
2018-07-07T06:53:42.249Z,542.6
2018-07-07T06:54:44.750Z,542.5
2018-07-07T06:55:47.199Z,542.3
2018-07-07T06:56:49.104Z,542.6
2018-07-07T06:57:51.553Z,541.9
2018-07-07T06:58:53.722Z,542
2018-07-07T06:59:56.026Z,541.7
2018-07-07T07:00:58.220Z,541.8
2018-07-07T07:02:00.396Z,541.9
2018-07-07T07:03:02.574Z,541.8
2018-07-07T07:04:05.040Z,541.6
2018-07-07T07:05:06.951Z,541.8
2018-07-07T07:06:08.861Z,541.5
2018-07-07T07:07:11.028Z,541.3
2018-07-07T07:08:13.227Z,541.1
2018-07-07T07:09:15.691Z,541
2018-07-07T07:10:18.134Z,540.9
2018-07-07T07:11:20.006Z,541.1
2018-07-07T07:12:21.617Z,540.7
2018-07-07T07:13:23.827Z,540.7
2018-07-07T07:14:25.997Z,540.6
2018-07-07T07:15:28.198Z,540.8
2018-07-07T07:16:30.638Z,541
2018-07-07T07:17:32.263Z,540.5
2018-07-07T07:18:34.425Z,540.7
2018-07-07T07:19:36.582Z,540.6
2018-07-07T07:20:38.505Z,540.3
2018-07-07T07:21:40.983Z,540.7
2018-07-07T07:22:43.455Z,540
2018-07-07T07:23:45.633Z,540.2
2018-07-07T07:24:47.549Z,540.3
2018-07-07T07:25:50.014Z,539.9
2018-07-07T07:26:52.464Z,539.9
2018-07-07T07:27:55.006Z,540
2018-07-07T07:28:56.938Z,539.9
2018-07-07T07:29:59.100Z,540
2018-07-07T07:31:01.555Z,540
2018-07-07T07:32:04.048Z,540.1
2018-07-07T07:33:06.113Z,540.1
2018-07-07T07:34:08.037Z,540.1
2018-07-07T07:35:09.958Z,540.1
2018-07-07T07:36:11.867Z,540.3
2018-07-07T07:37:14.051Z,540.5
2018-07-07T07:38:16.509Z,539.8
2018-07-07T07:39:18.686Z,539.9
2018-07-07T07:40:20.878Z,540.1
2018-07-07T07:41:23.342Z,540.2
2018-07-07T07:42:25.258Z,540
2018-07-07T07:43:27.152Z,540.4
2018-07-07T07:44:29.338Z,540.3
2018-07-07T07:45:31.496Z,540.2
2018-07-07T07:46:33.422Z,540.3
2018-07-07T07:47:35.880Z,540.1
2018-07-07T07:48:38.059Z,540.3
2018-07-07T07:49:40.242Z,540.7
2018-07-07T07:50:42.706Z,540.6
2018-07-07T07:51:44.613Z,540.6
2018-07-07T07:52:47.325Z,540.3
2018-07-07T07:53:49.793Z,540.1
2018-07-07T07:54:52.241Z,540.4
2018-07-07T07:55:54.429Z,540.7
2018-07-07T07:56:56.466Z,540.4
2018-07-07T07:57:58.631Z,540.4
2018-07-07T07:59:01.431Z,540.4
2018-07-07T08:00:03.705Z,540.5
2018-07-07T08:01:06.234Z,540.5
2018-07-07T08:02:08.731Z,540.5
2018-07-07T08:03:11.180Z,540.7
2018-07-07T08:04:13.362Z,540.1
2018-07-07T08:05:15.813Z,540.8
2018-07-07T08:06:18.265Z,540.5
2018-07-07T08:07:20.723Z,540.4
2018-07-07T08:08:22.621Z,540.5
2018-07-07T08:09:24.821Z,540
2018-07-07T08:10:27.289Z,540.6
2018-07-07T08:11:29.475Z,540
2018-07-07T08:12:31.653Z,540
2018-07-07T08:13:33.837Z,540
2018-07-07T08:14:35.766Z,539.8
2018-07-07T08:15:38.217Z,540.1
2018-07-07T08:16:40.675Z,540.3
2018-07-07T08:17:42.857Z,540.5
2018-07-07T08:18:45.028Z,540.6
2018-07-07T08:19:46.934Z,540.5
2018-07-07T08:20:49.382Z,541.1
2018-07-07T08:21:51.844Z,541
2018-07-07T08:22:54.278Z,540.7
2018-07-07T08:23:56.719Z,540.6
2018-07-07T08:24:59.172Z,540.7
2018-07-07T08:26:01.617Z,540.2
2018-07-07T08:27:04.079Z,540.5
2018-07-07T08:28:06.539Z,540.7
2018-07-07T08:29:09.004Z,540.2
2018-07-07T08:30:11.228Z,540.6
2018-07-07T08:31:13.409Z,541.3
2018-07-07T08:32:15.871Z,540.7
2018-07-07T08:33:18.066Z,541.1
2018-07-07T08:34:20.697Z,540.7
2018-07-07T08:35:22.896Z,541.3
2018-07-07T08:36:25.483Z,541.2
2018-07-07T08:37:27.935Z,541
2018-07-07T08:38:30.389Z,540.6
2018-07-07T08:39:32.577Z,540.6
2018-07-07T08:40:35.038Z,541
2018-07-07T08:41:37.216Z,541
2018-07-07T08:42:39.405Z,540.8
2018-07-07T08:43:41.300Z,540.9
2018-07-07T08:44:43.474Z,540.8
2018-07-07T08:45:45.651Z,541
2018-07-07T08:46:47.830Z,540.5
2018-07-07T08:47:50.000Z,540.7
2018-07-07T08:48:52.459Z,540.9
2018-07-07T08:49:54.628Z,540.7
2018-07-07T08:50:56.823Z,541.4
2018-07-07T08:51:59.272Z,541.4
2018-07-07T08:53:01.729Z,541.2
2018-07-07T08:54:03.930Z,541.1
2018-07-07T08:55:06.389Z,541.3
2018-07-07T08:56:08.589Z,541.4
2018-07-07T08:57:11.039Z,541.1
2018-07-07T08:58:13.499Z,541.1
2018-07-07T08:59:15.947Z,541.7
2018-07-07T09:00:18.399Z,541.5
2018-07-07T09:01:20.872Z,541.1
2018-07-07T09:02:23.341Z,541.5
2018-07-07T09:03:25.811Z,541.5
2018-07-07T09:04:28.271Z,541.6
2018-07-07T09:05:30.717Z,541.8
2018-07-07T09:06:33.185Z,542.1
2018-07-07T09:07:35.430Z,541.9
2018-07-07T09:08:37.934Z,542
2018-07-07T09:09:40.120Z,542.3
2018-07-07T09:10:42.585Z,542.6
2018-07-07T09:11:45.049Z,542.5
2018-07-07T09:12:47.227Z,542.2
2018-07-07T09:13:49.675Z,542.8
2018-07-07T09:14:51.845Z,542.5
2018-07-07T09:15:54.305Z,542.4
2018-07-07T09:16:56.226Z,542.9
2018-07-07T09:17:58.699Z,542.7
2018-07-07T09:19:00.883Z,543.1
2018-07-07T09:20:02.783Z,542.6
2018-07-07T09:21:05.236Z,543
2018-07-07T09:22:07.118Z,543
2018-07-07T09:23:09.560Z,542.3
2018-07-07T09:24:12.021Z,542.6
2018-07-07T09:25:13.924Z,542.4
2018-07-07T09:26:16.087Z,542.9
2018-07-07T09:27:18.532Z,542.3
2018-07-07T09:28:20.712Z,542.5
2018-07-07T09:29:23.173Z,542.7
2018-07-07T09:30:25.360Z,542.8
2018-07-07T09:31:27.539Z,542.6
2018-07-07T09:32:29.463Z,542.7
2018-07-07T09:33:31.671Z,542.9
2018-07-07T09:34:33.814Z,543
2018-07-07T09:35:35.728Z,543
2018-07-07T09:36:37.633Z,543.1
2018-07-07T09:37:39.805Z,542.7
2018-07-07T09:38:42.467Z,543.4
2018-07-07T09:39:44.648Z,543
2018-07-07T09:40:47.100Z,542.8
2018-07-07T09:41:49.547Z,542.6
2018-07-07T09:42:50.913Z,543.1
2018-07-07T09:43:53.362Z,543
2018-07-07T09:44:55.270Z,543
2018-07-07T09:45:57.460Z,542.9
2018-07-07T09:46:59.090Z,542.9
2018-07-07T09:48:01.271Z,543
2018-07-07T09:49:03.448Z,542.9
2018-07-07T09:50:05.631Z,543.2
2018-07-07T09:51:08.081Z,542.8
2018-07-07T09:52:10.528Z,543.3
2018-07-07T09:53:13.007Z,543.4
2018-07-07T09:54:15.480Z,543.2
2018-07-07T09:55:17.921Z,542.6
2018-07-07T09:56:20.264Z,543.1
2018-07-07T09:57:22.124Z,543
2018-07-07T09:58:24.313Z,542.8
2018-07-07T09:59:26.770Z,543
2018-07-07T10:00:29.233Z,542.9
2018-07-07T10:01:31.414Z,542.8
2018-07-07T10:02:33.338Z,543.2
2018-07-07T10:03:35.787Z,543.2
2018-07-07T10:04:37.401Z,542.8
2018-07-07T10:05:39.575Z,543.1
2018-07-07T10:06:42.055Z,543.2
2018-07-07T10:07:44.126Z,543.3
2018-07-07T10:08:46.388Z,543.1
2018-07-07T10:09:48.848Z,543.5
2018-07-07T10:10:51.309Z,543.7
2018-07-07T10:11:53.490Z,543.9
2018-07-07T10:12:55.938Z,543.9
2018-07-07T10:13:57.843Z,543.8
2018-07-07T10:15:00.293Z,543.1
2018-07-07T10:16:02.750Z,543.3
2018-07-07T10:17:04.920Z,543.3
2018-07-07T10:18:07.380Z,543.2
2018-07-07T10:19:09.839Z,542.9
2018-07-07T10:20:12.019Z,543.1
2018-07-07T10:21:14.466Z,543.2
2018-07-07T10:22:16.648Z,543
2018-07-07T10:23:18.268Z,542.7
2018-07-07T10:24:20.718Z,543
2018-07-07T10:25:22.889Z,542.8
2018-07-07T10:26:25.729Z,543.4
2018-07-07T10:27:27.640Z,543.2
2018-07-07T10:28:30.098Z,542.9
2018-07-07T10:29:32.574Z,543.6
2018-07-07T10:30:34.756Z,543.5
2018-07-07T10:31:37.541Z,543.1
2018-07-07T10:32:40.037Z,543.3
2018-07-07T10:33:41.908Z,543.4
2018-07-07T10:34:44.090Z,542.9
2018-07-07T10:35:45.993Z,542.8
2018-07-07T10:36:48.441Z,543.1
2018-07-07T10:37:50.619Z,543.1
2018-07-07T10:38:52.770Z,543.6
2018-07-07T10:39:54.950Z,543.5
2018-07-07T10:40:57.102Z,543.7
2018-07-07T10:41:59.547Z,543.5
2018-07-07T10:43:01.702Z,543.5
2018-07-07T10:44:03.587Z,543.5
2018-07-07T10:45:05.759Z,543.1
2018-07-07T10:46:07.927Z,543.6
2018-07-07T10:47:10.143Z,543.5
2018-07-07T10:48:12.490Z,543.5
2018-07-07T10:49:14.805Z,543.8
2018-07-07T10:50:17.108Z,543.3
2018-07-07T10:51:19.081Z,543.8
2018-07-07T10:52:21.249Z,543.6
2018-07-07T10:53:23.453Z,543.7
2018-07-07T10:54:25.367Z,543.4
2018-07-07T10:55:28.082Z,543.7
2018-07-07T10:56:29.987Z,543.9
2018-07-07T10:57:32.436Z,544.2
2018-07-07T10:58:34.623Z,544.5
2018-07-07T10:59:37.057Z,544.4
2018-07-07T11:00:39.507Z,544.6
2018-07-07T11:01:41.686Z,545.2
2018-07-07T11:02:44.489Z,545
2018-07-07T11:03:46.671Z,545.1
2018-07-07T11:04:48.868Z,545.4
2018-07-07T11:05:51.324Z,545.5
2018-07-07T11:06:52.976Z,545.1
2018-07-07T11:07:55.168Z,545.1
2018-07-07T11:08:57.352Z,545.1
2018-07-07T11:09:59.813Z,544.8
2018-07-07T11:11:02.265Z,545
2018-07-07T11:12:05.156Z,545.3
2018-07-07T11:13:07.684Z,545.7
2018-07-07T11:14:09.868Z,545.6
2018-07-07T11:15:12.302Z,546
2018-07-07T11:16:14.749Z,546
2018-07-07T11:17:16.390Z,546.1
2018-07-07T11:18:18.584Z,546.1
2018-07-07T11:19:20.487Z,546.2
2018-07-07T11:20:22.673Z,546
2018-07-07T11:21:24.849Z,545.7
2018-07-07T11:22:27.303Z,545.9
2018-07-07T11:23:29.479Z,546.3
2018-07-07T11:24:31.941Z,545.8
2018-07-07T11:25:33.593Z,546.3
2018-07-07T11:26:35.775Z,546.2
2018-07-07T11:27:37.958Z,546.5
2018-07-07T11:28:40.133Z,546.1
2018-07-07T11:29:42.646Z,546.1
2018-07-07T11:30:45.084Z,546.2
2018-07-07T11:31:47.276Z,546.1
2018-07-07T11:32:49.724Z,546.4
2018-07-07T11:33:52.179Z,546
2018-07-07T11:34:54.369Z,546.2
2018-07-07T11:35:56.548Z,546.1
2018-07-07T11:36:59.122Z,546
2018-07-07T11:38:00.774Z,546.2
2018-07-07T11:39:02.688Z,546.1
2018-07-07T11:40:04.881Z,546
2018-07-07T11:41:07.310Z,546.3
2018-07-07T11:42:09.562Z,546.3
2018-07-07T11:43:11.672Z,545.8
2018-07-07T11:44:14.131Z,546.2
2018-07-07T11:45:16.307Z,546.3
2018-07-07T11:46:18.758Z,545.9
2018-07-07T11:47:20.944Z,546
2018-07-07T11:48:23.123Z,545.9
2018-07-07T11:49:25.021Z,545.9
2018-07-07T11:50:27.673Z,546.2
2018-07-07T11:51:29.839Z,546.2
2018-07-07T11:52:32.294Z,546.1
2018-07-07T11:53:34.745Z,546.3
2018-07-07T11:54:36.913Z,546.5
2018-07-07T11:55:39.087Z,546.3
2018-07-07T11:56:41.545Z,546.5
2018-07-07T11:57:43.999Z,546.6
2018-07-07T11:58:46.452Z,546.7
2018-07-07T11:59:48.896Z,546.9
2018-07-07T12:00:50.812Z,547.2
2018-07-07T12:01:53.344Z,546.9
2018-07-07T12:02:55.462Z,546.9
2018-07-07T12:03:57.368Z,547.4
2018-07-07T12:04:59.816Z,547.5
2018-07-07T12:06:02.009Z,547.5
2018-07-07T12:07:04.172Z,546.4
2018-07-07T12:09:11.619Z,546.8
2018-07-07T12:10:14.075Z,547.1
2018-07-07T12:11:16.537Z,547.5
2018-07-07T12:12:19.089Z,548
2018-07-07T12:13:21.559Z,547.5
2018-07-07T12:14:24.008Z,547.3
2018-07-07T12:15:26.193Z,548.1
2018-07-07T12:16:28.375Z,548
2018-07-07T12:17:31.337Z,547.9
2018-07-07T12:18:33.527Z,547.7
2018-07-07T12:19:35.670Z,548
2018-07-07T12:20:38.133Z,548.1
2018-07-07T12:21:40.018Z,548.5
2018-07-07T12:22:42.460Z,548.7
2018-07-07T12:23:44.643Z,548.7
2018-07-07T12:24:46.661Z,548.6
2018-07-07T12:25:48.993Z,549.2
2018-07-07T12:26:51.197Z,548.9
2018-07-07T12:27:53.154Z,549.1
2018-07-07T12:28:55.352Z,549
2018-07-07T12:29:57.838Z,549.7
2018-07-07T12:30:59.480Z,549.1
2018-07-07T12:32:01.368Z,549.1
2018-07-07T12:33:03.555Z,548.9
2018-07-07T12:34:05.996Z,549.1
2018-07-07T12:35:07.910Z,549.3
2018-07-07T12:36:10.364Z,548.9
2018-07-07T12:37:11.996Z,548.7
2018-07-07T12:38:14.439Z,549
2018-07-07T12:39:16.645Z,549.2
2018-07-07T12:40:18.527Z,549.2
2018-07-07T12:41:20.989Z,549.1
2018-07-07T12:42:23.140Z,548.6
2018-07-07T12:43:25.653Z,549.3
2018-07-07T12:44:28.100Z,549.3
2018-07-07T12:45:30.011Z,549.5
2018-07-07T12:46:32.175Z,549.4
2018-07-07T12:47:34.374Z,549.4
2018-07-07T12:48:36.545Z,549.5
2018-07-07T12:49:38.986Z,549.6
2018-07-07T12:50:41.167Z,549.1
2018-07-07T12:51:43.043Z,549.8
2018-07-07T12:52:44.953Z,549.5
2018-07-07T12:53:47.402Z,549.4
2018-07-07T12:54:49.589Z,549.2
2018-07-07T12:55:51.498Z,549.7
2018-07-07T12:56:53.115Z,549.8
2018-07-07T12:57:55.025Z,550
2018-07-07T12:58:57.473Z,549.7
2018-07-07T12:59:59.362Z,550.2
2018-07-07T13:01:01.553Z,550.2
2018-07-07T13:02:03.733Z,550
2018-07-07T13:03:05.919Z,549.9
2018-07-07T13:04:08.358Z,550.2
2018-07-07T13:05:10.819Z,550.3
2018-07-07T13:06:12.993Z,550.5
2018-07-07T13:07:15.183Z,550.6
2018-07-07T13:08:17.362Z,550.8
2018-07-07T13:09:19.807Z,550.4
2018-07-07T13:10:22.265Z,549.8
2018-07-07T13:11:24.446Z,550.3
2018-07-07T13:12:26.999Z,550.3
2018-07-07T13:13:29.176Z,549.9
2018-07-07T13:14:31.670Z,550.2
2018-07-07T13:15:34.108Z,550.5
2018-07-07T13:16:36.261Z,550.3
2018-07-07T13:17:38.195Z,550.5
2018-07-07T13:18:40.648Z,550.9
2018-07-07T13:19:42.825Z,550.7
2018-07-07T13:20:45.547Z,550.9
2018-07-07T13:21:47.588Z,550.9
2018-07-07T13:22:50.036Z,550.8
2018-07-07T13:23:52.502Z,551
2018-07-07T13:24:54.697Z,551.1
2018-07-07T13:25:56.589Z,551.2
2018-07-07T13:26:59.037Z,551.5
2018-07-07T13:28:01.477Z,551.5
2018-07-07T13:29:03.925Z,551.5
2018-07-07T13:30:05.859Z,551.7